createdAt,value
2017-10-17T00:00:29.233Z,33.20
2017-10-17T00:02:56.803Z,34.03
2017-10-17T00:05:25.179Z,32.70
2017-10-17T00:07:53.511Z,33.33
2017-10-17T00:10:21.453Z,34.77
2017-10-17T00:12:49.055Z,36.20
2017-10-17T00:15:16.915Z,35.00
2017-10-17T00:17:44.478Z,38.43
2017-10-17T00:20:12.058Z,30.33
2017-10-17T00:22:39.645Z,41.60
2017-10-17T00:25:09.963Z,41.63
2017-10-17T00:27:38.320Z,38.60
2017-10-17T00:30:05.942Z,33.20
2017-10-17T00:32:36.742Z,34.93
2017-10-17T00:35:13.236Z,34.70
2017-10-17T00:37:41.075Z,36.60
2017-10-17T00:40:08.653Z,36.80
2017-10-17T00:42:36.244Z,50.67
2017-10-17T00:45:03.819Z,40.63
2017-10-17T00:47:31.380Z,31.83
2017-10-17T00:49:59.329Z,34.97
2017-10-17T00:52:26.890Z,38.27
2017-10-17T00:54:54.478Z,31.90
2017-10-17T00:57:22.886Z,33.90
2017-10-17T00:59:50.459Z,29.23
2017-10-17T01:02:18.045Z,34.20
2017-10-17T01:04:45.608Z,28.23
2017-10-17T01:07:13.582Z,40.70
2017-10-17T01:09:41.259Z,37.13
2017-10-17T01:12:08.824Z,31.50
2017-10-17T01:14:37.193Z,34.27
2017-10-17T01:17:04.766Z,34.27
2017-10-17T01:19:33.392Z,38.83
2017-10-17T01:22:00.966Z,31.37
2017-10-17T01:24:28.518Z,42.50
2017-10-17T01:26:56.097Z,35.70
2017-10-17T01:29:27.285Z,38.10
2017-10-17T01:31:55.188Z,54.40
2017-10-17T01:34:39.558Z,30.27
2017-10-17T01:37:07.521Z,29.40
2017-10-17T01:39:35.985Z,33.33
2017-10-17T01:42:03.587Z,25.37
2017-10-17T01:44:32.017Z,27.20
2017-10-17T01:46:59.577Z,32.50
2017-10-17T01:49:30.708Z,24.47
2017-10-17T01:55:06.097Z,30.43
2017-10-17T01:57:35.422Z,30.10
2017-10-17T02:00:03.911Z,26.40
2017-10-17T02:02:31.481Z,38.77
2017-10-17T02:05:01.282Z,32.20
2017-10-17T02:07:28.885Z,30.40
2017-10-17T02:09:59.193Z,29.47
2017-10-17T02:12:27.122Z,32.93
2017-10-17T02:14:54.697Z,33.27
2017-10-17T02:17:23.127Z,38.57
2017-10-17T02:19:51.484Z,36.00
2017-10-17T02:22:28.842Z,34.43
2017-10-17T02:24:57.282Z,34.50
2017-10-17T02:27:24.870Z,41.47
2017-10-17T02:29:57.199Z,37.90
2017-10-17T02:32:24.778Z,36.67
2017-10-17T02:34:53.254Z,35.50
2017-10-17T02:37:20.885Z,32.87
2017-10-17T02:39:48.444Z,34.13
2017-10-17T02:42:16.279Z,34.00
2017-10-17T02:44:43.844Z,34.47
2017-10-17T02:47:12.240Z,37.37
2017-10-17T02:49:42.499Z,34.80
2017-10-17T02:52:32.697Z,39.30
2017-10-17T02:55:00.295Z,30.73
2017-10-17T02:57:28.701Z,37.00
2017-10-17T02:59:57.364Z,35.57
2017-10-17T03:02:31.195Z,52.23
2017-10-17T03:04:59.813Z,36.90
2017-10-17T03:07:27.369Z,45.43
2017-10-17T03:09:55.093Z,37.47
2017-10-17T03:12:22.669Z,48.40
2017-10-17T03:14:51.030Z,53.30
2017-10-17T03:17:18.626Z,33.00
2017-10-17T03:19:46.204Z,32.73
2017-10-17T03:22:15.712Z,33.57
2017-10-17T03:24:48.057Z,35.93
2017-10-17T03:27:15.637Z,38.93
2017-10-17T03:29:43.196Z,33.07
2017-10-17T03:32:11.115Z,34.90
2017-10-17T03:34:42.464Z,35.17
2017-10-17T03:37:27.610Z,30.83
2017-10-17T03:40:12.806Z,37.90
2017-10-17T03:42:40.385Z,33.03
2017-10-17T03:45:08.777Z,32.43
2017-10-17T03:47:43.847Z,37.03
2017-10-17T03:50:24.154Z,35.60
2017-10-17T03:52:51.750Z,32.20
2017-10-17T03:55:19.415Z,31.83
2017-10-17T03:57:48.781Z,35.23
2017-10-17T04:00:17.264Z,34.47
2017-10-17T04:02:49.543Z,35.23
2017-10-17T04:05:19.959Z,32.90
2017-10-17T04:07:50.383Z,32.07
2017-10-17T04:10:18.225Z,30.37
2017-10-17T04:13:14.395Z,27.63
2017-10-17T04:15:42.340Z,26.50
2017-10-17T04:18:23.775Z,30.40
2017-10-17T04:20:53.025Z,30.23
2017-10-17T04:23:25.042Z,30.40
2017-10-17T04:26:07.326Z,33.93
2017-10-17T04:28:37.642Z,36.87
2017-10-17T04:34:24.843Z,36.90
2017-10-17T04:37:13.982Z,47.50
2017-10-17T04:39:41.566Z,34.40
2017-10-17T04:42:21.855Z,37.57
2017-10-17T04:45:01.092Z,37.43
2017-10-17T04:47:36.082Z,34.90
2017-10-17T04:53:14.887Z,39.13
2017-10-17T04:58:49.046Z,32.53
2017-10-17T05:01:17.373Z,37.23
2017-10-17T05:03:46.462Z,35.50
2017-10-17T05:06:14.034Z,29.77
2017-10-17T05:11:37.568Z,27.47
2017-10-17T05:14:22.811Z,30.43
2017-10-17T05:16:57.271Z,31.00
2017-10-17T05:19:28.328Z,35.20
2017-10-17T05:22:01.868Z,27.00
2017-10-17T05:24:50.904Z,27.17
2017-10-17T05:27:30.300Z,28.63
2017-10-17T05:30:16.341Z,26.70
2017-10-17T05:32:43.937Z,27.73
2017-10-17T05:35:16.795Z,24.57
2017-10-17T05:37:44.638Z,32.23
2017-10-17T05:40:12.992Z,27.50
2017-10-17T05:42:40.550Z,30.03
2017-10-17T05:45:09.040Z,37.87
2017-10-17T05:47:48.794Z,27.67
2017-10-17T05:50:25.272Z,28.10
2017-10-17T05:52:52.845Z,33.67
2017-10-17T05:55:20.694Z,30.93
2017-10-17T05:57:48.269Z,32.43
2017-10-17T06:00:15.936Z,29.70
2017-10-17T06:02:43.561Z,30.37
2017-10-17T06:05:11.163Z,36.97
2017-10-17T06:07:38.774Z,25.33
2017-10-17T06:10:06.438Z,35.77
2017-10-17T06:12:34.345Z,22.77
2017-10-17T06:15:01.914Z,26.70
2017-10-17T06:17:29.505Z,25.00
2017-10-17T06:19:57.114Z,23.87
2017-10-17T06:22:24.664Z,23.77
2017-10-17T06:24:52.549Z,37.30
2017-10-17T06:27:20.221Z,22.33
2017-10-17T06:29:47.790Z,26.27
2017-10-17T06:32:15.373Z,34.80
2017-10-17T06:34:42.974Z,24.93
2017-10-17T06:37:10.587Z,26.30
2017-10-17T06:39:38.922Z,25.57
2017-10-17T06:42:06.866Z,20.73
2017-10-17T06:44:34.549Z,32.00
2017-10-17T06:47:02.119Z,31.67
2017-10-17T06:49:29.710Z,26.50
2017-10-17T06:51:58.630Z,32.30
2017-10-17T06:54:26.569Z,24.73
2017-10-17T06:56:54.928Z,24.13
2017-10-17T06:59:22.509Z,24.07
2017-10-17T07:01:50.875Z,23.63
2017-10-17T07:04:19.221Z,17.03
2017-10-17T07:06:46.847Z,26.10
2017-10-17T07:09:14.412Z,19.90
2017-10-17T07:11:42.262Z,18.70
2017-10-17T07:14:09.874Z,21.43
2017-10-17T07:16:37.673Z,16.50
2017-10-17T07:19:06.040Z,21.10
2017-10-17T07:21:34.426Z,20.80
2017-10-17T07:24:02.801Z,28.43
2017-10-17T07:26:31.188Z,25.97
2017-10-17T07:28:59.819Z,16.93
2017-10-17T07:31:28.279Z,23.93
2017-10-17T07:33:55.860Z,16.93
2017-10-17T07:36:23.460Z,24.17
2017-10-17T07:38:51.817Z,24.23
2017-10-17T07:41:19.698Z,16.20
2017-10-17T07:43:47.302Z,18.53
2017-10-17T07:46:14.967Z,19.00
2017-10-17T07:48:42.579Z,17.40
2017-10-17T07:51:10.218Z,19.67
2017-10-17T07:53:38.068Z,18.60
2017-10-17T07:56:05.653Z,16.47
2017-10-17T07:58:33.251Z,22.63
2017-10-17T08:01:01.074Z,22.53
2017-10-17T08:03:28.659Z,25.00
2017-10-17T08:05:57.019Z,13.37
2017-10-17T08:08:24.620Z,28.07
2017-10-17T08:10:52.555Z,22.03
2017-10-17T08:13:20.138Z,24.80
2017-10-17T08:15:48.478Z,21.83
2017-10-17T08:18:16.125Z,19.60
2017-10-17T08:20:43.747Z,16.20
2017-10-17T08:23:11.342Z,17.87
2017-10-17T08:25:38.934Z,17.63
2017-10-17T08:28:06.894Z,13.83
2017-10-17T08:30:34.453Z,14.63
2017-10-17T08:33:02.025Z,23.03
2017-10-17T08:35:30.383Z,14.63
2017-10-17T08:37:58.003Z,18.47
2017-10-17T08:40:26.009Z,13.47
2017-10-17T08:42:53.602Z,14.93
2017-10-17T08:45:22.058Z,10.23
2017-10-17T08:47:49.674Z,15.67
2017-10-17T08:50:17.247Z,12.83
2017-10-17T08:52:44.857Z,11.30
2017-10-17T08:55:13.217Z,14.17
2017-10-17T08:57:41.096Z,13.30
2017-10-17T09:00:08.670Z,15.00
2017-10-17T09:02:37.013Z,15.00
2017-10-17T09:05:04.614Z,10.07
2017-10-17T09:07:32.238Z,12.63
2017-10-17T09:10:00.290Z,15.47
2017-10-17T09:12:27.877Z,12.50
2017-10-17T09:14:55.462Z,11.50
2017-10-17T09:17:23.951Z,15.13
2017-10-17T09:19:51.534Z,12.30
2017-10-17T09:22:19.129Z,15.17
2017-10-17T09:24:46.729Z,15.20
2017-10-17T09:27:14.665Z,16.23
2017-10-17T09:29:42.242Z,12.70
2017-10-17T09:32:10.575Z,10.73
2017-10-17T09:34:38.546Z,12.20
2017-10-17T09:37:06.202Z,13.27
2017-10-17T09:39:33.770Z,12.30
2017-10-17T09:42:01.378Z,12.43
2017-10-17T09:44:29.758Z,13.50
2017-10-17T09:46:57.737Z,12.23
2017-10-17T09:49:25.314Z,19.63
2017-10-17T09:51:52.903Z,11.40
2017-10-17T09:54:20.494Z,15.27
2017-10-17T09:56:48.968Z,12.13
2017-10-17T09:59:16.902Z,13.33
2017-10-17T10:01:44.507Z,12.67
2017-10-17T10:04:12.854Z,11.17
2017-10-17T10:06:40.520Z,13.07
2017-10-17T10:09:08.077Z,19.93
2017-10-17T10:11:36.035Z,16.07
2017-10-17T10:14:03.619Z,9.60
2017-10-17T10:16:31.206Z,8.80
2017-10-17T10:18:58.900Z,13.80
2017-10-17T10:21:26.473Z,9.23
2017-10-17T10:23:54.118Z,9.83
2017-10-17T10:26:22.482Z,10.50
2017-10-17T10:28:50.373Z,11.67
2017-10-17T10:31:17.958Z,9.47
2017-10-17T10:33:45.534Z,8.50
2017-10-17T10:36:13.947Z,8.77
2017-10-17T10:38:41.530Z,12.37
2017-10-17T10:41:09.502Z,13.00
2017-10-17T10:43:37.083Z,8.20
2017-10-17T10:46:04.690Z,8.00
2017-10-17T10:48:32.298Z,8.20
2017-10-17T10:50:59.897Z,9.77
2017-10-17T10:53:27.505Z,10.50
2017-10-17T10:55:55.091Z,11.83
2017-10-17T10:58:22.932Z,9.47
2017-10-17T11:00:50.556Z,10.60
2017-10-17T11:03:18.145Z,10.50
2017-10-17T11:05:45.738Z,9.63
2017-10-17T11:08:14.618Z,8.97
2017-10-17T11:10:42.553Z,18.33
2017-10-17T11:13:10.164Z,10.00
2017-10-17T11:15:38.568Z,12.93
2017-10-17T11:18:06.256Z,12.10
2017-10-17T11:20:34.675Z,11.43
2017-10-17T11:23:03.066Z,10.40
2017-10-17T11:25:31.454Z,11.37
2017-10-17T11:27:59.309Z,13.67
2017-10-17T11:30:27.662Z,14.77
2017-10-17T11:32:55.249Z,16.23
2017-10-17T11:35:22.918Z,11.40
2017-10-17T11:37:50.492Z,9.83
2017-10-17T11:40:40.818Z,12.60
2017-10-17T11:43:20.157Z,8.60
2017-10-17T11:45:48.009Z,9.40
2017-10-17T11:48:15.625Z,9.23
2017-10-17T11:50:44.203Z,11.60
2017-10-17T11:53:12.611Z,12.10
2017-10-17T11:55:40.208Z,9.73
2017-10-17T11:58:08.057Z,12.53
2017-10-17T12:00:35.690Z,12.07
2017-10-17T12:03:03.270Z,10.73
2017-10-17T12:05:30.885Z,14.10
2017-10-17T12:07:59.232Z,11.70
2017-10-17T12:10:26.858Z,8.77
2017-10-17T12:12:54.415Z,11.63
2017-10-17T12:15:22.263Z,8.53
2017-10-17T12:17:49.850Z,12.73
2017-10-17T12:20:18.303Z,10.20
2017-10-17T12:22:46.046Z,10.27
2017-10-17T12:25:14.365Z,6.47
2017-10-17T12:27:41.974Z,13.10
2017-10-17T12:30:09.575Z,12.13
2017-10-17T12:32:37.425Z,7.67
2017-10-17T12:35:04.994Z,10.17
2017-10-17T12:37:32.582Z,8.40
2017-10-17T12:40:00.183Z,8.30
2017-10-17T12:42:28.553Z,11.90
2017-10-17T12:44:56.403Z,11.37
2017-10-17T12:47:24.009Z,10.50
2017-10-17T12:49:51.773Z,6.60
2017-10-17T12:52:19.366Z,9.73
2017-10-17T12:54:46.955Z,9.63
2017-10-17T12:57:14.605Z,10.30
2017-10-17T12:59:42.173Z,12.40
2017-10-17T13:02:10.022Z,10.33
2017-10-17T13:04:37.615Z,8.97
2017-10-17T13:07:05.240Z,19.17
2017-10-17T13:09:32.858Z,8.80
2017-10-17T13:12:00.438Z,11.43
2017-10-17T13:14:28.286Z,9.60
2017-10-17T13:16:55.842Z,13.70
2017-10-17T13:19:24.169Z,7.50
2017-10-17T13:21:51.776Z,8.70
2017-10-17T13:24:20.127Z,9.07
2017-10-17T13:26:47.870Z,9.47
2017-10-17T13:29:15.448Z,8.30
2017-10-17T13:31:43.400Z,9.03
2017-10-17T13:34:10.986Z,8.30
2017-10-17T13:36:39.374Z,10.50
2017-10-17T13:39:07.754Z,8.33
2017-10-17T13:41:36.104Z,14.17
2017-10-17T13:44:03.943Z,9.70
2017-10-17T13:46:31.526Z,10.10
2017-10-17T13:48:59.098Z,11.23
2017-10-17T13:51:26.686Z,8.10
2017-10-17T13:53:54.246Z,13.73
2017-10-17T13:56:21.940Z,9.70
2017-10-17T13:58:49.509Z,14.83
2017-10-17T14:01:17.375Z,8.10
2017-10-17T14:03:45.054Z,15.13
2017-10-17T14:06:12.775Z,13.00
2017-10-17T14:08:40.364Z,9.30
2017-10-17T14:11:07.946Z,11.60
2017-10-17T14:13:35.883Z,9.87
2017-10-17T14:16:03.454Z,8.53
2017-10-17T14:18:31.034Z,7.97
2017-10-17T14:20:58.645Z,10.60
2017-10-17T14:23:27.031Z,9.63
2017-10-17T14:25:54.694Z,14.23
2017-10-17T14:28:22.274Z,6.97
2017-10-17T14:30:50.241Z,13.10
2017-10-17T14:33:17.859Z,10.97
2017-10-17T14:35:45.434Z,9.97
2017-10-17T14:38:13.315Z,12.60
2017-10-17T14:40:40.969Z,17.17
2017-10-17T14:43:08.581Z,10.43
2017-10-17T14:45:36.965Z,10.47
2017-10-17T14:48:05.306Z,10.50
2017-10-17T14:50:33.518Z,13.87
2017-10-17T14:53:01.866Z,9.73
2017-10-17T14:55:29.479Z,15.40
2017-10-17T14:57:57.106Z,11.73
2017-10-17T15:00:25.755Z,10.40
2017-10-17T15:02:53.370Z,8.17
2017-10-17T15:05:21.869Z,11.40
2017-10-17T15:07:49.492Z,15.90
2017-10-17T15:10:17.144Z,9.83
2017-10-17T15:12:44.778Z,13.30
2017-10-17T15:15:12.420Z,8.10
2017-10-17T15:17:40.294Z,12.23
2017-10-17T15:20:07.872Z,12.10
2017-10-17T15:22:35.442Z,10.73
2017-10-17T15:25:03.297Z,11.90
2017-10-17T15:27:30.883Z,8.47
2017-10-17T15:29:58.831Z,12.33
2017-10-17T15:32:26.404Z,16.60
2017-10-17T15:34:53.972Z,11.73
2017-10-17T15:37:22.335Z,12.03
2017-10-17T15:39:49.924Z,13.93
2017-10-17T15:42:18.325Z,11.93
2017-10-17T15:44:45.884Z,12.20
2017-10-17T15:47:13.741Z,10.73
2017-10-17T15:49:41.337Z,10.40
2017-10-17T15:52:08.960Z,10.57
2017-10-17T15:54:36.605Z,11.73
2017-10-17T15:57:04.970Z,10.67
2017-10-17T15:59:33.615Z,18.50
2017-10-17T16:02:01.239Z,11.67
2017-10-17T16:04:28.882Z,9.47
2017-10-17T16:06:57.269Z,14.17
2017-10-17T16:09:25.601Z,13.60
2017-10-17T16:11:53.213Z,14.60
2017-10-17T16:14:21.850Z,12.60
2017-10-17T16:16:49.721Z,12.30
2017-10-17T16:19:17.311Z,12.27
2017-10-17T16:21:45.711Z,43.17
2017-10-17T16:24:13.350Z,15.40
2017-10-17T16:26:40.975Z,12.30
2017-10-17T16:29:08.846Z,21.10
2017-10-17T16:31:36.463Z,13.37
2017-10-17T16:34:04.086Z,20.23
2017-10-17T16:36:31.733Z,21.20
2017-10-17T16:38:59.457Z,23.60
2017-10-17T16:41:27.070Z,15.70
2017-10-17T16:43:54.755Z,14.37
2017-10-17T16:46:23.415Z,14.60
2017-10-17T16:48:51.015Z,22.03
2017-10-17T16:51:18.676Z,17.13
2017-10-17T16:53:46.304Z,13.80
2017-10-17T16:56:14.725Z,17.57
2017-10-17T16:58:42.649Z,19.13
2017-10-17T17:01:11.019Z,18.23
2017-10-17T17:03:39.429Z,26.13
2017-10-17T17:06:07.116Z,21.17
2017-10-17T17:08:34.776Z,15.70
2017-10-17T17:11:02.451Z,19.70
2017-10-17T17:13:30.101Z,19.57
2017-10-17T17:15:58.032Z,15.00
2017-10-17T17:18:25.628Z,18.63
2017-10-17T17:20:58.057Z,18.33
2017-10-17T17:23:25.750Z,19.80
2017-10-17T17:25:53.398Z,25.10
2017-10-17T17:28:21.256Z,19.20
2017-10-17T17:30:49.637Z,19.33
2017-10-17T17:33:18.072Z,30.93
2017-10-17T17:35:45.704Z,21.30
2017-10-17T17:38:13.306Z,37.43
2017-10-17T17:40:40.955Z,23.43
2017-10-17T17:43:08.612Z,19.80
2017-10-17T17:45:36.461Z,18.57
2017-10-17T17:48:04.131Z,25.40
2017-10-17T17:50:31.808Z,27.13
2017-10-17T17:52:59.483Z,21.30
2017-10-17T17:55:27.131Z,20.00
2017-10-17T17:57:54.846Z,27.30
2017-10-17T18:00:22.504Z,23.80
2017-10-17T18:02:50.437Z,22.50
2017-10-17T18:05:18.046Z,22.93
2017-10-17T18:07:45.671Z,31.87
2017-10-17T18:10:13.504Z,31.63
2017-10-17T18:12:41.188Z,21.87
2017-10-17T18:15:11.162Z,31.37
2017-10-17T18:17:39.519Z,29.70
2017-10-17T18:20:08.282Z,28.47
2017-10-17T18:22:36.308Z,32.00
2017-10-17T18:25:04.702Z,30.53
2017-10-17T18:27:32.498Z,25.57
2017-10-17T18:30:00.176Z,34.43
2017-10-17T18:32:28.155Z,30.80
2017-10-17T18:34:55.900Z,28.70
2017-10-17T18:37:24.285Z,36.47
2017-10-17T18:39:52.083Z,32.67
2017-10-17T18:42:19.790Z,28.90
2017-10-17T18:44:48.195Z,31.03
2017-10-17T18:47:19.710Z,37.10
2017-10-17T18:49:47.422Z,29.30
2017-10-17T18:52:15.346Z,38.67
2017-10-17T18:54:43.065Z,39.83
2017-10-17T18:57:10.832Z,29.10
2017-10-17T18:59:38.897Z,29.10
2017-10-17T19:02:06.821Z,35.90
2017-10-17T19:04:35.455Z,27.00
2017-10-17T19:07:03.199Z,30.30
2017-10-17T19:09:31.315Z,34.17
2017-10-17T19:11:58.975Z,26.70
2017-10-17T19:14:27.116Z,34.83
2017-10-17T19:16:57.344Z,36.37
2017-10-17T19:19:27.270Z,38.97
2017-10-17T19:21:57.986Z,34.53
2017-10-17T19:24:25.608Z,41.23
2017-10-17T19:26:53.267Z,30.10
2017-10-17T19:29:21.130Z,28.97
2017-10-17T19:31:49.132Z,36.57
2017-10-17T19:34:16.836Z,65.40
2017-10-17T19:36:46.408Z,170.40
2017-10-17T19:39:14.116Z,105.40
2017-10-17T19:41:41.863Z,119.27
2017-10-17T19:44:10.258Z,45.30
2017-10-17T19:46:45.143Z,73.97
2017-10-17T19:49:13.062Z,41.63
2017-10-17T19:51:40.618Z,39.33
2017-10-17T19:54:08.310Z,51.30
2017-10-17T19:56:36.005Z,37.33
2017-10-17T19:59:03.741Z,34.67
2017-10-17T20:01:31.468Z,34.53
2017-10-17T20:03:59.303Z,44.83
2017-10-17T20:06:27.582Z,30.93
2017-10-17T20:08:55.231Z,27.00
2017-10-17T20:11:22.909Z,31.50
2017-10-17T20:13:52.111Z,45.23
2017-10-17T20:16:20.267Z,32.67
2017-10-17T20:18:48.185Z,28.43
2017-10-17T20:21:16.559Z,31.10
2017-10-17T20:23:44.358Z,30.00
2017-10-17T20:26:14.534Z,30.07
2017-10-17T20:28:42.486Z,32.00
2017-10-17T20:31:17.470Z,33.07
2017-10-17T20:33:45.917Z,30.37
2017-10-17T20:36:13.774Z,32.37
2017-10-17T20:38:42.300Z,33.17
2017-10-17T20:43:55.893Z,35.20
2017-10-17T20:46:24.052Z,37.50
2017-10-17T20:48:51.727Z,60.00
2017-10-17T20:51:19.318Z,65.87
2017-10-17T20:53:47.803Z,64.60
2017-10-17T20:56:15.434Z,72.00
2017-10-17T20:58:43.062Z,64.37
2017-10-17T21:01:10.653Z,65.07
2017-10-17T21:03:38.674Z,55.47
2017-10-17T21:06:06.263Z,41.97
2017-10-17T21:08:33.890Z,36.40
2017-10-17T21:11:01.522Z,31.50
2017-10-17T21:13:29.484Z,33.80
2017-10-17T21:15:57.136Z,37.80
2017-10-17T21:18:24.768Z,34.30
2017-10-17T21:20:52.446Z,34.53
2017-10-17T21:23:20.073Z,41.53
2017-10-17T21:25:47.979Z,37.60
2017-10-17T21:28:15.646Z,30.63
2017-10-17T21:30:43.274Z,45.00
2017-10-17T21:33:10.960Z,37.67
2017-10-17T21:35:38.587Z,46.03
2017-10-17T21:38:06.250Z,48.00
2017-10-17T21:40:33.898Z,36.70
2017-10-17T21:43:01.852Z,33.13
2017-10-17T21:45:29.541Z,35.20
2017-10-17T21:47:57.179Z,38.00
2017-10-17T21:50:25.593Z,34.47
2017-10-17T21:52:53.214Z,31.70
2017-10-17T21:55:21.856Z,35.13
2017-10-17T21:57:49.472Z,40.50
2017-10-17T22:00:17.164Z,42.23
2017-10-17T22:02:44.772Z,42.17
2017-10-17T22:05:13.136Z,42.80
2017-10-17T22:07:40.933Z,32.50
2017-10-17T22:10:08.514Z,35.07
2017-10-17T22:12:39.091Z,32.50
2017-10-17T22:15:06.687Z,34.83
2017-10-17T22:17:35.147Z,43.77
2017-10-17T22:20:03.698Z,36.33
2017-10-17T22:22:31.289Z,34.80
2017-10-17T22:24:59.907Z,43.90
2017-10-17T22:27:27.506Z,37.57
2017-10-17T22:29:55.127Z,61.60
2017-10-17T22:32:22.746Z,54.87
2017-10-17T22:34:51.133Z,65.80
2017-10-17T22:37:19.506Z,56.43
2017-10-17T22:39:47.881Z,47.37
2017-10-17T22:42:16.634Z,53.33
2017-10-17T22:44:44.252Z,41.17
2017-10-17T22:47:11.836Z,51.40
2017-10-17T22:49:39.438Z,52.40
2017-10-17T22:52:07.035Z,47.83
2017-10-17T22:54:41.698Z,47.00
2017-10-17T22:57:09.291Z,44.57
2017-10-17T22:59:37.385Z,46.53
2017-10-17T23:02:05.027Z,49.13
2017-10-17T23:04:32.603Z,41.07
2017-10-17T23:07:00.962Z,46.63
2017-10-17T23:09:28.557Z,50.23
2017-10-17T23:11:56.522Z,49.07
2017-10-17T23:14:24.089Z,48.73
2017-10-17T23:17:03.863Z,45.60
2017-10-17T23:19:43.368Z,38.80
2017-10-17T23:22:11.369Z,41.30
2017-10-17T23:24:38.952Z,36.30
2017-10-17T23:27:06.554Z,33.60
2017-10-17T23:29:34.171Z,30.80
2017-10-17T23:32:01.768Z,32.40
2017-10-17T23:34:29.379Z,34.90
2017-10-17T23:36:57.003Z,35.73
2017-10-17T23:39:24.589Z,33.20
2017-10-17T23:41:52.174Z,32.53
2017-10-17T23:44:20.143Z,33.63
2017-10-17T23:46:47.729Z,35.77
2017-10-17T23:49:16.096Z,37.47
2017-10-17T23:51:44.463Z,37.30
2017-10-17T23:54:12.043Z,37.87
2017-10-17T23:56:40.434Z,33.30
2017-10-17T23:59:08.174Z,34.27
